createdAt,value
2022-11-17T00:00:02.442Z,0.00
2022-11-17T00:01:02.485Z,0.00
2022-11-17T00:02:02.877Z,0.00
2022-11-17T00:03:02.472Z,0.00
2022-11-17T00:04:03.004Z,0.00
2022-11-17T00:05:02.757Z,0.00
2022-11-17T00:06:02.530Z,0.00
2022-11-17T00:07:03.466Z,0.00
2022-11-17T00:08:03.224Z,0.00
2022-11-17T00:09:03.094Z,0.00
2022-11-17T00:10:03.691Z,0.00
2022-11-17T00:11:03.128Z,0.00
2022-11-17T00:12:02.839Z,0.00
2022-11-17T00:13:02.713Z,0.00
2022-11-17T00:14:03.076Z,0.00
2022-11-17T00:15:02.939Z,0.00
2022-11-17T00:16:02.977Z,0.00
2022-11-17T00:17:03.360Z,0.00
2022-11-17T00:18:02.823Z,0.00
2022-11-17T00:19:02.799Z,0.00
2022-11-17T00:20:02.818Z,0.00
2022-11-17T00:21:03.020Z,0.00
2022-11-17T00:22:02.429Z,0.00
2022-11-17T00:23:02.901Z,0.00
2022-11-17T00:24:02.400Z,0.00
2022-11-17T00:25:02.567Z,0.00
2022-11-17T00:26:02.744Z,0.00
2022-11-17T00:27:02.709Z,0.00
2022-11-17T00:28:02.742Z,0.00
2022-11-17T00:29:02.611Z,0.00
2022-11-17T00:30:02.681Z,0.00
2022-11-17T00:31:02.666Z,0.00
2022-11-17T00:32:03.107Z,0.00
2022-11-17T00:33:03.476Z,0.00
2022-11-17T00:34:03.213Z,0.00
2022-11-17T00:35:03.697Z,0.00
2022-11-17T00:36:03.682Z,0.00
2022-11-17T00:37:03.102Z,0.00
2022-11-17T00:38:02.908Z,0.00
2022-11-17T00:39:03.074Z,0.00
2022-11-17T00:40:03.391Z,0.00
2022-11-17T00:41:03.364Z,0.00
2022-11-17T00:42:03.231Z,0.00
2022-11-17T00:43:02.922Z,0.00
2022-11-17T00:44:03.307Z,0.00
2022-11-17T00:45:02.880Z,0.00
2022-11-17T00:46:03.356Z,0.00
2022-11-17T00:47:03.493Z,0.00
2022-11-17T00:48:03.234Z,0.00
2022-11-17T00:49:03.618Z,0.00
2022-11-17T00:50:03.374Z,0.00
2022-11-17T00:51:03.136Z,0.00
2022-11-17T00:52:02.891Z,0.00
2022-11-17T00:53:02.612Z,0.00
2022-11-17T00:54:02.814Z,0.00
2022-11-17T00:55:02.802Z,0.00
2022-11-17T00:56:02.529Z,0.00
2022-11-17T00:57:02.909Z,0.00
2022-11-17T00:58:02.932Z,0.00
2022-11-17T00:59:03.096Z,0.00
2022-11-17T01:00:03.130Z,0.00
2022-11-17T01:01:03.280Z,0.00
2022-11-17T01:02:02.238Z,0.00
2022-11-17T01:03:02.337Z,0.00
2022-11-17T01:04:02.040Z,0.00
2022-11-17T01:05:02.496Z,0.00
2022-11-17T01:06:02.105Z,0.00
2022-11-17T01:07:02.239Z,0.00
2022-11-17T01:08:02.629Z,0.00
2022-11-17T01:09:02.122Z,0.00
2022-11-17T01:10:02.366Z,0.00
2022-11-17T01:11:02.648Z,0.00
2022-11-17T01:12:03.239Z,0.00
2022-11-17T01:13:03.286Z,0.00
2022-11-17T01:14:02.919Z,0.00
2022-11-17T01:15:02.878Z,0.00
2022-11-17T01:16:02.948Z,0.00
2022-11-17T01:17:02.614Z,0.00
2022-11-17T01:18:02.373Z,0.00
2022-11-17T01:19:02.513Z,0.00
2022-11-17T01:20:02.997Z,0.00
2022-11-17T01:21:02.850Z,0.00
2022-11-17T01:22:02.823Z,0.00
2022-11-17T01:23:03.326Z,0.00
2022-11-17T01:24:02.767Z,0.00
2022-11-17T01:25:02.997Z,0.00
2022-11-17T01:26:02.933Z,0.00
2022-11-17T01:27:02.320Z,0.00
2022-11-17T01:28:02.253Z,0.00
2022-11-17T01:29:02.637Z,0.00
2022-11-17T01:30:02.265Z,0.00
2022-11-17T01:31:02.578Z,0.00
2022-11-17T01:32:02.931Z,0.00
2022-11-17T01:33:02.869Z,0.00
2022-11-17T01:34:03.300Z,0.00
2022-11-17T01:35:02.698Z,0.00
2022-11-17T01:36:02.875Z,0.00
2022-11-17T01:37:02.452Z,0.00
2022-11-17T01:38:02.557Z,0.00
2022-11-17T01:39:02.197Z,0.00
2022-11-17T01:40:02.093Z,0.00
2022-11-17T01:41:01.942Z,0.00
2022-11-17T01:42:02.369Z,0.00
2022-11-17T01:43:02.177Z,0.00
2022-11-17T01:44:02.395Z,0.00
2022-11-17T01:45:02.140Z,0.00
2022-11-17T01:46:02.599Z,0.00
2022-11-17T01:47:02.875Z,0.00
2022-11-17T01:48:03.233Z,0.00
2022-11-17T01:49:03.024Z,0.00
2022-11-17T01:50:03.150Z,0.00
2022-11-17T01:51:02.703Z,0.00
2022-11-17T01:52:03.154Z,0.00
2022-11-17T01:53:02.845Z,0.00
2022-11-17T01:54:03.237Z,0.00
2022-11-17T01:55:02.929Z,0.00
2022-11-17T01:56:03.250Z,0.00
2022-11-17T01:57:02.789Z,0.00
2022-11-17T01:58:02.875Z,0.00
2022-11-17T01:59:02.643Z,0.00
2022-11-17T02:00:02.852Z,0.00
2022-11-17T02:01:02.959Z,0.00
2022-11-17T02:02:02.385Z,0.00
2022-11-17T02:03:01.939Z,0.00
2022-11-17T02:04:01.887Z,0.00
2022-11-17T02:05:02.275Z,0.00
2022-11-17T02:06:01.888Z,0.00
2022-11-17T02:07:02.627Z,0.00
2022-11-17T02:08:03.193Z,0.00
2022-11-17T02:09:02.768Z,0.00
2022-11-17T02:10:02.751Z,0.00
2022-11-17T02:11:02.961Z,0.00
2022-11-17T02:12:02.247Z,0.00
2022-11-17T02:13:01.967Z,0.00
2022-11-17T02:14:02.248Z,0.00
2022-11-17T02:15:01.913Z,0.00
2022-11-17T02:16:02.257Z,0.00
2022-11-17T02:17:10.155Z,0.00
2022-11-17T02:18:02.234Z,0.00
2022-11-17T02:19:02.381Z,0.00
2022-11-17T02:20:02.403Z,0.00
2022-11-17T02:21:02.180Z,0.00
2022-11-17T02:22:02.983Z,0.00
2022-11-17T02:23:02.849Z,0.00
2022-11-17T02:24:03.009Z,0.00
2022-11-17T02:25:02.667Z,0.00
2022-11-17T02:26:02.853Z,0.00
2022-11-17T02:27:02.086Z,0.00
2022-11-17T02:28:01.886Z,0.00
2022-11-17T02:29:02.082Z,0.00
2022-11-17T02:30:02.286Z,0.00
2022-11-17T02:31:01.882Z,0.00
2022-11-17T02:32:02.390Z,0.00
2022-11-17T02:33:02.808Z,0.00
2022-11-17T02:34:02.778Z,0.00
2022-11-17T02:35:02.424Z,0.00
2022-11-17T02:36:02.813Z,0.00
2022-11-17T02:37:03.057Z,0.00
2022-11-17T02:38:02.655Z,0.00
2022-11-17T02:39:03.200Z,0.00
2022-11-17T02:40:02.609Z,0.00
2022-11-17T02:41:03.168Z,0.00
2022-11-17T02:42:02.035Z,0.00
2022-11-17T02:43:01.751Z,0.00
2022-11-17T02:44:02.107Z,0.00
2022-11-17T02:45:01.932Z,0.00
2022-11-17T02:46:02.162Z,0.00
2022-11-17T02:47:02.532Z,0.00
2022-11-17T02:48:02.336Z,0.00
2022-11-17T02:49:01.918Z,0.00
2022-11-17T02:50:02.247Z,0.00
2022-11-17T02:51:02.056Z,0.00
2022-11-17T02:52:02.518Z,0.00
2022-11-17T02:53:02.933Z,0.00
2022-11-17T02:54:02.670Z,0.00
2022-11-17T02:55:02.683Z,0.00
2022-11-17T02:56:03.000Z,0.00
2022-11-17T02:57:02.165Z,0.00
2022-11-17T02:58:02.390Z,0.00
2022-11-17T02:59:02.519Z,0.00
2022-11-17T03:00:02.237Z,0.00
2022-11-17T03:01:02.386Z,0.00
2022-11-17T03:02:03.508Z,0.00
2022-11-17T03:03:03.161Z,0.00
2022-11-17T03:04:03.457Z,0.00
2022-11-17T03:05:03.669Z,0.00
2022-11-17T03:06:03.273Z,0.00
2022-11-17T03:07:03.270Z,0.00
2022-11-17T03:08:02.779Z,0.00
2022-11-17T03:09:03.112Z,0.00
2022-11-17T03:10:02.626Z,0.00
2022-11-17T03:11:03.009Z,0.00
2022-11-17T03:12:02.671Z,0.00
2022-11-17T03:13:02.378Z,0.00
2022-11-17T03:14:02.680Z,0.00
2022-11-17T03:15:02.824Z,0.00
2022-11-17T03:16:02.653Z,0.00
2022-11-17T03:17:03.578Z,0.00
2022-11-17T03:18:02.972Z,0.00
2022-11-17T03:19:03.135Z,0.00
2022-11-17T03:20:03.495Z,0.00
2022-11-17T03:21:03.086Z,0.00
2022-11-17T03:22:02.864Z,0.00
2022-11-17T03:23:02.648Z,0.00
2022-11-17T03:24:02.410Z,0.00
2022-11-17T03:25:02.762Z,0.00
2022-11-17T03:26:02.471Z,0.00
2022-11-17T03:27:03.030Z,0.00
2022-11-17T03:28:03.356Z,0.00
2022-11-17T03:29:03.054Z,0.00
2022-11-17T03:30:03.473Z,0.00
2022-11-17T03:31:03.467Z,0.00
2022-11-17T03:32:03.198Z,0.00
2022-11-17T03:33:03.612Z,0.00
2022-11-17T03:34:03.477Z,0.00
2022-11-17T03:35:03.730Z,0.00
2022-11-17T03:36:03.206Z,0.00
2022-11-17T03:37:02.580Z,0.00
2022-11-17T03:38:03.059Z,0.00
2022-11-17T03:39:02.973Z,0.00
2022-11-17T03:40:02.706Z,0.00
2022-11-17T03:41:03.030Z,0.00
2022-11-17T03:42:03.005Z,0.00
2022-11-17T03:43:03.329Z,0.00
2022-11-17T03:44:03.076Z,0.00
2022-11-17T03:45:03.346Z,0.00
2022-11-17T03:46:02.991Z,0.00
2022-11-17T03:47:03.030Z,0.00
2022-11-17T03:48:03.420Z,0.00
2022-11-17T03:49:03.609Z,0.00
2022-11-17T03:50:03.081Z,0.00
2022-11-17T03:51:03.381Z,0.00
2022-11-17T03:52:02.701Z,0.00
2022-11-17T03:53:03.070Z,0.00
2022-11-17T03:54:02.773Z,0.00
2022-11-17T03:55:03.179Z,0.00
2022-11-17T03:56:02.538Z,0.00
2022-11-17T03:57:02.763Z,0.00
2022-11-17T03:58:03.144Z,0.00
2022-11-17T03:59:03.056Z,0.00
2022-11-17T04:00:03.182Z,0.00
2022-11-17T04:01:03.215Z,0.00
2022-11-17T04:02:02.947Z,0.00
2022-11-17T04:03:03.041Z,0.00
2022-11-17T04:04:03.104Z,0.00
2022-11-17T04:05:02.803Z,0.00
2022-11-17T04:06:03.102Z,0.00
2022-11-17T04:07:02.481Z,0.00
2022-11-17T04:08:02.336Z,0.00
2022-11-17T04:09:02.686Z,0.00
2022-11-17T04:10:02.388Z,0.00
2022-11-17T04:11:02.798Z,0.00
2022-11-17T04:12:02.947Z,0.00
2022-11-17T04:13:02.956Z,0.00
2022-11-17T04:14:02.821Z,0.00
2022-11-17T04:15:03.131Z,0.00
2022-11-17T04:16:02.776Z,0.00
2022-11-17T04:17:03.086Z,0.00
2022-11-17T04:18:03.331Z,0.00
2022-11-17T04:19:03.124Z,0.00
2022-11-17T04:20:03.332Z,0.00
2022-11-17T04:21:03.030Z,0.00
2022-11-17T04:22:02.446Z,0.00
2022-11-17T04:23:02.636Z,0.00
2022-11-17T04:24:02.171Z,0.00
2022-11-17T04:25:02.394Z,0.00
2022-11-17T04:26:02.706Z,0.00
2022-11-17T04:27:02.743Z,0.00
2022-11-17T04:28:02.548Z,0.00
2022-11-17T04:29:03.154Z,0.00
2022-11-17T04:30:02.721Z,0.00
2022-11-17T04:31:02.759Z,0.00
2022-11-17T04:32:03.212Z,0.00
2022-11-17T04:33:02.997Z,0.00
2022-11-17T04:34:02.793Z,0.00
2022-11-17T04:35:03.078Z,0.00
2022-11-17T04:36:03.281Z,0.00
2022-11-17T04:37:07.951Z,0.00
2022-11-17T04:38:02.915Z,0.00
2022-11-17T04:39:02.921Z,0.00
2022-11-17T04:40:02.894Z,0.00
2022-11-17T04:41:02.530Z,0.00
2022-11-17T04:42:02.813Z,0.00
2022-11-17T04:43:03.109Z,0.00
2022-11-17T04:44:02.553Z,0.00
2022-11-17T04:45:02.858Z,0.00
2022-11-17T04:46:02.597Z,0.00
2022-11-17T04:47:02.815Z,0.00
2022-11-17T04:48:03.252Z,0.00
2022-11-17T04:49:02.603Z,0.00
2022-11-17T04:50:02.616Z,0.00
2022-11-17T04:51:03.049Z,0.00
2022-11-17T04:52:02.409Z,0.00
2022-11-17T04:53:02.043Z,0.00
2022-11-17T04:54:02.412Z,0.00
2022-11-17T04:55:02.017Z,0.00
2022-11-17T04:56:02.371Z,0.00
2022-11-17T04:57:02.289Z,0.00
2022-11-17T04:58:02.624Z,0.00
2022-11-17T04:59:02.705Z,0.00
2022-11-17T05:00:02.316Z,0.00
2022-11-17T05:01:02.787Z,0.00
2022-11-17T05:02:06.196Z,0.00
2022-11-17T05:03:02.695Z,0.00
2022-11-17T05:04:03.335Z,0.00
2022-11-17T05:05:03.257Z,0.00
2022-11-17T05:06:02.667Z,0.00
2022-11-17T05:07:02.641Z,0.00
2022-11-17T05:08:02.372Z,0.00
2022-11-17T05:09:02.638Z,0.00
2022-11-17T05:10:02.779Z,0.00
2022-11-17T05:11:03.007Z,0.00
2022-11-17T05:12:02.607Z,0.00
2022-11-17T05:13:03.209Z,0.00
2022-11-17T05:14:02.646Z,0.00
2022-11-17T05:15:03.011Z,0.00
2022-11-17T05:16:02.678Z,0.00
2022-11-17T05:17:09.053Z,0.00
2022-11-17T05:18:03.093Z,0.00
2022-11-17T05:19:03.364Z,0.00
2022-11-17T05:20:03.165Z,0.00
2022-11-17T05:21:03.365Z,0.00
2022-11-17T05:22:02.698Z,0.00
2022-11-17T05:23:06.553Z,0.00
2022-11-17T05:24:02.616Z,0.00
2022-11-17T05:25:02.168Z,0.00
2022-11-17T05:26:02.411Z,0.00
2022-11-17T05:28:02.634Z,0.00
2022-11-17T05:29:02.743Z,0.00
2022-11-17T05:30:02.481Z,0.00
2022-11-17T05:31:02.189Z,0.00
2022-11-17T05:32:03.201Z,0.00
2022-11-17T05:33:03.121Z,0.00
2022-11-17T05:34:02.912Z,0.00
2022-11-17T05:35:03.295Z,0.00
2022-11-17T05:36:03.241Z,0.00
2022-11-17T05:37:02.656Z,0.00
2022-11-17T05:38:02.135Z,0.00
2022-11-17T05:39:02.218Z,0.00
2022-11-17T05:40:02.493Z,0.00
2022-11-17T05:41:02.244Z,0.00
2022-11-17T05:42:02.752Z,0.00
2022-11-17T05:43:02.529Z,0.00
2022-11-17T05:44:02.547Z,0.00
2022-11-17T05:45:02.150Z,0.00
2022-11-17T05:46:02.256Z,0.00
2022-11-17T05:47:03.313Z,0.00
2022-11-17T05:48:02.743Z,0.00
2022-11-17T05:49:03.153Z,0.00
2022-11-17T05:50:03.081Z,0.00
2022-11-17T05:51:02.831Z,0.00
2022-11-17T05:52:02.876Z,0.00
2022-11-17T05:53:02.654Z,0.00
2022-11-17T05:54:02.672Z,0.00
2022-11-17T05:55:02.848Z,0.00
2022-11-17T05:56:02.804Z,0.00
2022-11-17T05:57:02.555Z,0.00
2022-11-17T05:58:03.074Z,0.00
2022-11-17T05:59:02.701Z,0.00
2022-11-17T06:00:03.126Z,0.00
2022-11-17T06:01:02.733Z,0.00
2022-11-17T06:02:03.159Z,0.00
2022-11-17T06:03:03.577Z,0.00
2022-11-17T06:04:03.408Z,0.00
2022-11-17T06:05:03.344Z,0.00
2022-11-17T06:06:03.500Z,0.00
2022-11-17T06:07:02.784Z,0.00
2022-11-17T06:08:02.643Z,0.00
2022-11-17T06:09:02.888Z,0.00
2022-11-17T06:10:02.629Z,0.00
2022-11-17T06:11:02.933Z,0.00
2022-11-17T06:12:06.273Z,0.00
2022-11-17T06:13:02.653Z,0.00
2022-11-17T06:14:03.010Z,0.00
2022-11-17T06:15:02.750Z,0.00
2022-11-17T06:16:02.599Z,0.00
2022-11-17T06:17:03.247Z,0.00
2022-11-17T06:18:03.674Z,0.00
2022-11-17T06:19:03.560Z,0.00
2022-11-17T06:20:03.183Z,0.00
2022-11-17T06:21:03.610Z,0.00
2022-11-17T06:22:12.582Z,0.00
2022-11-17T06:23:03.328Z,4.00
2022-11-17T06:24:03.875Z,4.00
2022-11-17T06:25:03.829Z,0.00
2022-11-17T06:26:03.305Z,4.00
2022-11-17T06:27:03.030Z,4.00
2022-11-17T06:28:02.842Z,4.00
2022-11-17T06:29:03.323Z,4.00
2022-11-17T06:30:02.736Z,4.00
2022-11-17T06:31:03.188Z,4.00
2022-11-17T06:32:03.293Z,8.00
2022-11-17T06:33:02.810Z,8.00
2022-11-17T06:34:03.280Z,8.00
2022-11-17T06:35:02.951Z,8.00
2022-11-17T06:36:03.385Z,4.00
2022-11-17T06:37:03.122Z,8.00
2022-11-17T06:38:02.944Z,8.00
2022-11-17T06:39:03.306Z,12.00
2022-11-17T06:40:03.239Z,12.00
2022-11-17T06:41:06.181Z,12.00
2022-11-17T06:42:03.685Z,12.00
2022-11-17T06:43:03.466Z,12.00
2022-11-17T06:44:03.973Z,16.00
2022-11-17T06:45:03.555Z,16.00
2022-11-17T06:46:03.371Z,24.00
2022-11-17T06:47:03.033Z,20.00
2022-11-17T06:48:03.385Z,20.00
2022-11-17T06:49:03.441Z,24.00
2022-11-17T06:50:02.907Z,32.00
2022-11-17T06:51:03.370Z,32.00
2022-11-17T06:52:02.660Z,40.00
2022-11-17T06:53:02.465Z,40.00
2022-11-17T06:54:02.911Z,52.00
2022-11-17T06:55:02.904Z,60.00
2022-11-17T06:56:02.807Z,60.00
2022-11-17T06:57:03.426Z,72.00
2022-11-17T06:58:02.785Z,88.00
2022-11-17T06:59:03.215Z,100.00
2022-11-17T07:00:03.034Z,120.00
2022-11-17T07:01:02.858Z,132.00
2022-11-17T07:02:02.420Z,140.00
2022-11-17T07:03:02.240Z,152.00
2022-11-17T07:04:02.708Z,136.00
2022-11-17T07:05:02.344Z,140.00
2022-11-17T07:06:02.423Z,168.00
2022-11-17T07:07:03.119Z,176.00
2022-11-17T07:08:03.216Z,184.00
2022-11-17T07:09:03.105Z,216.00
2022-11-17T07:10:02.733Z,228.00
2022-11-17T07:11:03.288Z,260.00
2022-11-17T07:12:02.515Z,268.00
2022-11-17T07:13:02.280Z,276.00
2022-11-17T07:14:02.164Z,232.00
2022-11-17T07:15:02.634Z,200.00
2022-11-17T07:16:02.207Z,164.00
2022-11-17T07:17:02.760Z,152.00
2022-11-17T07:18:02.539Z,164.00
2022-11-17T07:19:02.453Z,248.00
2022-11-17T07:20:02.521Z,416.00
2022-11-17T07:21:03.003Z,656.00
2022-11-17T07:22:02.486Z,592.00
2022-11-17T07:23:02.472Z,688.00
2022-11-17T07:24:02.377Z,636.00
2022-11-17T07:25:02.250Z,948.00
2022-11-17T07:26:02.106Z,1244.00
2022-11-17T07:27:02.613Z,1396.00
2022-11-17T07:28:02.251Z,1508.00
2022-11-17T07:29:02.718Z,1484.00
2022-11-17T07:30:02.462Z,1432.00
2022-11-17T07:31:02.281Z,1368.00
2022-11-17T07:32:03.002Z,1304.00
2022-11-17T07:33:03.122Z,1224.00
2022-11-17T07:34:02.828Z,1192.00
2022-11-17T07:35:02.774Z,1128.00
2022-11-17T07:36:03.125Z,1056.00
2022-11-17T07:37:03.010Z,968.00
2022-11-17T07:38:02.811Z,872.00
2022-11-17T07:39:02.614Z,748.00
2022-11-17T07:40:03.202Z,620.00
2022-11-17T07:41:02.806Z,532.00
2022-11-17T07:42:02.427Z,456.00
2022-11-17T07:43:02.032Z,416.00
2022-11-17T07:44:02.263Z,388.00
2022-11-17T07:45:02.022Z,360.00
2022-11-17T07:46:02.406Z,308.00
2022-11-17T07:47:02.929Z,284.00
2022-11-17T07:48:02.572Z,284.00
2022-11-17T07:49:02.435Z,288.00
2022-11-17T07:50:02.506Z,280.00
2022-11-17T07:51:02.454Z,280.00
2022-11-17T07:52:02.534Z,284.00
2022-11-17T07:53:03.066Z,304.00
2022-11-17T07:54:02.750Z,328.00
2022-11-17T07:55:03.110Z,376.00
2022-11-17T07:56:02.773Z,436.00
2022-11-17T07:57:02.660Z,516.00
2022-11-17T07:58:02.568Z,560.00
2022-11-17T07:59:02.438Z,572.00
2022-11-17T08:00:02.367Z,648.00
2022-11-17T08:01:02.369Z,780.00
2022-11-17T08:02:02.760Z,868.00
2022-11-17T08:03:02.413Z,852.00
2022-11-17T08:04:02.747Z,880.00
2022-11-17T08:05:02.386Z,860.00
2022-11-17T08:06:02.205Z,1024.00
2022-11-17T08:07:02.828Z,1120.00
2022-11-17T08:08:02.670Z,1156.00
2022-11-17T08:09:02.575Z,1224.00
2022-11-17T08:10:02.775Z,1268.00
2022-11-17T08:11:02.326Z,1352.00
2022-11-17T08:12:02.944Z,1400.00
2022-11-17T08:13:02.495Z,1404.00
2022-11-17T08:14:03.014Z,1424.00
2022-11-17T08:15:02.931Z,1432.00
2022-11-17T08:16:02.656Z,1388.00
2022-11-17T08:17:03.232Z,1344.00
2022-11-17T08:18:02.669Z,1356.00
2022-11-17T08:19:02.971Z,1548.00
2022-11-17T08:20:02.855Z,1640.00
2022-11-17T08:21:02.793Z,1712.00
2022-11-17T08:22:03.251Z,1756.00
2022-11-17T08:23:03.171Z,1844.00
2022-11-17T08:24:03.167Z,1964.00
2022-11-17T08:25:03.237Z,2068.00
2022-11-17T08:26:03.209Z,2092.00
2022-11-17T08:27:02.558Z,2084.00
2022-11-17T08:28:02.453Z,2176.00
2022-11-17T08:29:02.734Z,2248.00
2022-11-17T08:30:02.269Z,2320.00
2022-11-17T08:31:02.756Z,2324.00
2022-11-17T08:32:03.253Z,2292.00
2022-11-17T08:33:02.745Z,2316.00
2022-11-17T08:34:02.607Z,2336.00
2022-11-17T08:35:02.533Z,2352.00
2022-11-17T08:36:03.144Z,2436.00
2022-11-17T08:37:02.238Z,2380.00
2022-11-17T08:38:02.764Z,2256.00
2022-11-17T08:39:02.379Z,2212.00
2022-11-17T08:40:02.475Z,2236.00
2022-11-17T08:41:02.609Z,2376.00
2022-11-17T08:42:02.520Z,2536.00
2022-11-17T08:43:03.130Z,2628.00
2022-11-17T08:44:02.756Z,2656.00
2022-11-17T08:45:02.549Z,2836.00
2022-11-17T08:46:02.967Z,2880.00
2022-11-17T08:47:02.900Z,3044.00
2022-11-17T08:48:03.663Z,3216.00
2022-11-17T08:49:03.269Z,3576.00
2022-11-17T08:50:03.242Z,3772.00
2022-11-17T08:51:03.018Z,3860.00
2022-11-17T08:52:02.602Z,3836.00
2022-11-17T08:53:03.044Z,3848.00
2022-11-17T08:54:02.895Z,3972.00
2022-11-17T08:55:02.943Z,4116.00
2022-11-17T08:56:02.882Z,4272.00
2022-11-17T08:57:02.856Z,4392.00
2022-11-17T08:58:03.011Z,4516.00
2022-11-17T08:59:02.949Z,4620.00
2022-11-17T09:00:02.861Z,4680.00
2022-11-17T09:01:05.518Z,4776.00
2022-11-17T09:02:02.341Z,4764.00
2022-11-17T09:03:02.880Z,4576.00
2022-11-17T09:04:02.624Z,4400.00
2022-11-17T09:05:02.674Z,4412.00
2022-11-17T09:06:02.525Z,4564.00
2022-11-17T09:07:01.872Z,4832.00
2022-11-17T09:08:16.361Z,4936.00
2022-11-17T09:09:02.300Z,4976.00
2022-11-17T09:11:02.134Z,4920.00
2022-11-17T09:12:02.012Z,4864.00
2022-11-17T09:13:01.870Z,4744.00
2022-11-17T09:14:02.254Z,4660.00
2022-11-17T09:15:02.189Z,4568.00
2022-11-17T09:16:01.987Z,4384.00
2022-11-17T09:17:02.535Z,4280.00
2022-11-17T09:18:02.837Z,4264.00
2022-11-17T09:19:02.627Z,4252.00
2022-11-17T09:20:02.565Z,4124.00
2022-11-17T09:21:02.415Z,4200.00
2022-11-17T09:22:01.991Z,4312.00
2022-11-17T09:23:01.883Z,4444.00
2022-11-17T09:24:02.506Z,4620.00
2022-11-17T09:25:02.178Z,4768.00
2022-11-17T09:26:02.040Z,4756.00
2022-11-17T09:27:02.634Z,4768.00
2022-11-17T09:28:02.431Z,4640.00
2022-11-17T09:29:02.775Z,4584.00
2022-11-17T09:30:02.769Z,4504.00
2022-11-17T09:31:03.092Z,4340.00
2022-11-17T09:32:02.297Z,4232.00
2022-11-17T09:33:02.224Z,4140.00
2022-11-17T09:34:05.386Z,4096.00
2022-11-17T09:35:02.344Z,4180.00
2022-11-17T09:36:02.333Z,4272.00
2022-11-17T09:37:02.821Z,4352.00
2022-11-17T09:38:02.705Z,4112.00
2022-11-17T09:39:02.617Z,4288.00
2022-11-17T09:40:02.541Z,4440.00
2022-11-17T09:41:03.015Z,4580.00
2022-11-17T09:42:02.551Z,4612.00
2022-11-17T09:43:02.645Z,4464.00
2022-11-17T09:44:02.563Z,4456.00
2022-11-17T09:45:02.905Z,4440.00
2022-11-17T09:46:07.316Z,4336.00
2022-11-17T09:47:02.948Z,4428.00
2022-11-17T09:48:33.336Z,4484.00
2022-11-17T09:49:03.200Z,4740.00
2022-11-17T09:50:02.810Z,4948.00
2022-11-17T09:51:02.613Z,5124.00
2022-11-17T09:52:02.138Z,4940.00
2022-11-17T09:53:01.819Z,4352.00
2022-11-17T09:54:02.301Z,3908.00
2022-11-17T09:55:02.305Z,3752.00
2022-11-17T09:56:02.016Z,4244.00
2022-11-17T09:57:02.670Z,5380.00
2022-11-17T09:58:02.611Z,6188.00
2022-11-17T09:59:02.879Z,6344.00
2022-11-17T10:00:02.425Z,6172.00
2022-11-17T10:01:02.423Z,6012.00
2022-11-17T10:02:02.999Z,5068.00
2022-11-17T10:03:02.609Z,5520.00
2022-11-17T10:04:03.165Z,5192.00
2022-11-17T10:05:02.814Z,4972.00
2022-11-17T10:06:02.810Z,4492.00
2022-11-17T10:07:03.258Z,3816.00
2022-11-17T10:08:03.398Z,3280.00
2022-11-17T10:09:03.425Z,3184.00
2022-11-17T10:10:02.893Z,3088.00
2022-11-17T10:11:02.803Z,2956.00
2022-11-17T10:12:02.839Z,2804.00
2022-11-17T10:13:02.793Z,2756.00
2022-11-17T10:14:02.696Z,2604.00
2022-11-17T10:15:02.543Z,2204.00
2022-11-17T10:16:02.405Z,2368.00
2022-11-17T10:17:02.953Z,3072.00
2022-11-17T10:18:02.796Z,4100.00
2022-11-17T10:19:02.727Z,4644.00
2022-11-17T10:20:02.618Z,5108.00
2022-11-17T10:21:02.660Z,5500.00
2022-11-17T10:22:03.224Z,6116.00
2022-11-17T10:23:03.090Z,6720.00
2022-11-17T10:24:03.449Z,6988.00
2022-11-17T10:25:03.057Z,6748.00
2022-11-17T10:26:03.015Z,7748.00
2022-11-17T10:27:03.589Z,7852.00
2022-11-17T10:28:03.498Z,7984.00
2022-11-17T10:29:08.226Z,7972.00
2022-11-17T10:30:03.651Z,7972.00
2022-11-17T10:31:03.595Z,8152.00
2022-11-17T10:32:03.179Z,7572.00
2022-11-17T10:33:03.061Z,7536.00
2022-11-17T10:34:03.023Z,7168.00
2022-11-17T10:35:02.699Z,7336.00
2022-11-17T10:36:03.316Z,7528.00
2022-11-17T10:37:03.627Z,7512.00
2022-11-17T10:38:03.497Z,7548.00
2022-11-17T10:39:03.352Z,7476.00
2022-11-17T10:40:03.266Z,7244.00
2022-11-17T10:41:03.786Z,7212.00
2022-11-17T10:42:03.662Z,6872.00
2022-11-17T10:43:03.748Z,6840.00
2022-11-17T10:44:03.736Z,6616.00
2022-11-17T10:45:03.297Z,6624.00
2022-11-17T10:46:03.778Z,6772.00
2022-11-17T10:47:03.306Z,6716.00
2022-11-17T10:48:02.881Z,6508.00
2022-11-17T10:49:03.302Z,5652.00
2022-11-17T10:50:02.843Z,6016.00
2022-11-17T10:51:03.082Z,5888.00
2022-11-17T10:52:03.720Z,5668.00
2022-11-17T10:53:03.489Z,5364.00
2022-11-17T10:54:03.397Z,5916.00
2022-11-17T10:55:03.840Z,6136.00
2022-11-17T10:56:03.578Z,6128.00
2022-11-17T10:57:03.380Z,6084.00
2022-11-17T10:58:03.043Z,5692.00
2022-11-17T10:59:02.977Z,5520.00
2022-11-17T11:00:02.787Z,6012.00
2022-11-17T11:01:02.998Z,6288.00
2022-11-17T11:02:01.833Z,6852.00
2022-11-17T11:03:02.455Z,7148.00
2022-11-17T11:04:02.152Z,7516.00
2022-11-17T11:05:02.096Z,7480.00
2022-11-17T11:06:02.033Z,7088.00
2022-11-17T11:07:02.465Z,7164.00
2022-11-17T11:08:02.905Z,7480.00
2022-11-17T11:09:02.737Z,7560.00
2022-11-17T11:10:02.519Z,7908.00
2022-11-17T11:11:02.669Z,7156.00
2022-11-17T11:12:02.387Z,6912.00
2022-11-17T11:13:02.551Z,6736.00
2022-11-17T11:14:02.745Z,6536.00
2022-11-17T11:15:02.480Z,6376.00
2022-11-17T11:16:02.413Z,6304.00
2022-11-17T11:17:02.541Z,6564.00
2022-11-17T11:18:02.199Z,7632.00
2022-11-17T11:19:01.773Z,7748.00
2022-11-17T11:20:01.707Z,8052.00
2022-11-17T11:21:01.801Z,8356.00
2022-11-17T11:22:01.727Z,8540.00
2022-11-17T11:23:02.303Z,8424.00
2022-11-17T11:24:02.096Z,7920.00
2022-11-17T11:25:01.992Z,7376.00
2022-11-17T11:26:02.516Z,7184.00
2022-11-17T11:27:02.113Z,6900.00
2022-11-17T11:28:02.720Z,6760.00
2022-11-17T11:29:02.800Z,6824.00
2022-11-17T11:30:02.370Z,6880.00
2022-11-17T11:31:02.948Z,6772.00
2022-11-17T11:32:02.883Z,6964.00
2022-11-17T11:33:02.616Z,7312.00
2022-11-17T11:34:02.563Z,7456.00
2022-11-17T11:35:02.433Z,7660.00
2022-11-17T11:36:02.178Z,7692.00
2022-11-17T11:37:02.121Z,7748.00
2022-11-17T11:38:02.625Z,7832.00
2022-11-17T11:39:02.568Z,8016.00
2022-11-17T11:40:02.576Z,8188.00
2022-11-17T11:41:03.137Z,8300.00
2022-11-17T11:42:07.668Z,8304.00
2022-11-17T11:43:02.827Z,8080.00
2022-11-17T11:44:02.647Z,7600.00
2022-11-17T11:45:03.041Z,6792.00
2022-11-17T11:46:03.208Z,6000.00
2022-11-17T11:47:03.218Z,6456.00
2022-11-17T11:48:01.803Z,7604.00
2022-11-17T11:49:01.673Z,8284.00
2022-11-17T11:50:02.221Z,8636.00
2022-11-17T11:51:02.262Z,8656.00
2022-11-17T11:52:01.986Z,8540.00
2022-11-17T11:53:02.506Z,8400.00
2022-11-17T11:54:02.431Z,8160.00
2022-11-17T11:55:02.857Z,8064.00
2022-11-17T11:56:02.591Z,7644.00
2022-11-17T11:57:02.813Z,7384.00
2022-11-17T11:58:02.852Z,7388.00
2022-11-17T11:59:02.797Z,7592.00
2022-11-17T12:00:04.736Z,7804.00
2022-11-17T12:01:02.708Z,7956.00
2022-11-17T12:02:02.701Z,7940.00
2022-11-17T12:03:02.725Z,7944.00
2022-11-17T12:04:02.282Z,8080.00
2022-11-17T12:05:02.205Z,8044.00
2022-11-17T12:06:02.735Z,8016.00
2022-11-17T12:07:02.301Z,8116.00
2022-11-17T12:08:06.017Z,8120.00
2022-11-17T12:09:01.623Z,8016.00
2022-11-17T12:10:02.190Z,7820.00
2022-11-17T12:11:01.755Z,7744.00
2022-11-17T12:12:02.248Z,7684.00
2022-11-17T12:13:02.576Z,7592.00
2022-11-17T12:14:02.623Z,7408.00
2022-11-17T12:15:02.357Z,7300.00
2022-11-17T12:16:02.307Z,7320.00
2022-11-17T12:17:02.325Z,7696.00
2022-11-17T12:18:02.829Z,8108.00
2022-11-17T12:19:02.690Z,7848.00
2022-11-17T12:20:09.346Z,7928.00
2022-11-17T12:21:02.585Z,7980.00
2022-11-17T12:22:02.969Z,7936.00
2022-11-17T12:23:02.551Z,7712.00
2022-11-17T12:24:02.508Z,7292.00
2022-11-17T12:25:02.374Z,6588.00
2022-11-17T12:26:02.775Z,5808.00
2022-11-17T12:27:02.318Z,5424.00
2022-11-17T12:28:02.960Z,5188.00
2022-11-17T12:29:03.090Z,5116.00
2022-11-17T12:30:02.771Z,4404.00
2022-11-17T12:31:08.269Z,5068.00
2022-11-17T12:32:02.896Z,5624.00
2022-11-17T12:33:02.128Z,5956.00
2022-11-17T12:34:02.562Z,5888.00
2022-11-17T12:35:02.368Z,5428.00
2022-11-17T12:36:02.233Z,4920.00
2022-11-17T12:37:02.481Z,4476.00
2022-11-17T12:38:03.159Z,4112.00
2022-11-17T12:39:03.047Z,3868.00
2022-11-17T12:40:03.030Z,3636.00
2022-11-17T12:41:02.886Z,3400.00
2022-11-17T12:42:02.868Z,5556.00
2022-11-17T12:43:02.545Z,3792.00
2022-11-17T12:44:02.154Z,4240.00
2022-11-17T12:45:02.618Z,4876.00
2022-11-17T12:46:02.280Z,6168.00